Time;durP1;ratioP1;P1;durP2;ratioP2;P2;SDS_P1;SDS_P2;PMS_P1;PMS_P2;Temp;Humidity;BMP_temperature;BMP_pressure;BME280_temperature;BME280_humidity;BME280_pressure;Samples;Min_cycle;Max_cycle;Signal;HPM_P1;HPM_P2
2023/10/09 00:02:09;;;;;;;17.95;6.00;;;12.80;99.90;;;;;;4891974;29;20521;-63
2023/10/09 00:04:46;;;;;;;20.30;5.97;;;12.90;99.90;;;;;;4894210;29;20040;-63
2023/10/09 00:07:16;;;;;;;23.70;6.28;;;12.90;99.90;;;;;;4891538;29;20073;-63
2023/10/09 00:09:46;;;;;;;19.15;4.82;;;12.90;99.90;;;;;;4863388;29;20045;-63
2023/10/09 00:12:22;;;;;;;19.48;5.03;;;12.80;99.90;;;;;;4897891;29;20045;-62
2023/10/09 00:14:50;;;;;;;16.40;4.43;;;12.80;99.90;;;;;;4899512;29;20048;-63
2023/10/09 00:17:17;;;;;;;17.92;5.03;;;12.70;99.90;;;;;;4899292;29;20562;-63
2023/10/09 00:19:51;;;;;;;17.35;4.32;;;12.70;99.90;;;;;;4882138;29;20041;-61
2023/10/09 00:25:10;;;;;;;17.17;5.57;;;12.60;99.90;;;;;;4899438;29;20041;-63
2023/10/09 00:27:46;;;;;;;15.05;4.95;;;12.70;99.90;;;;;;4899083;29;20132;-62
2023/10/09 00:30:18;;;;;;;17.35;4.55;;;12.60;99.90;;;;;;4894430;29;20052;-63
2023/10/09 00:33:22;;;;;;;25.65;4.35;;;12.60;99.90;;;;;;4891913;29;20051;-62
2023/10/09 00:38:23;;;;;;;21.02;5.10;;;12.50;99.90;;;;;;4881885;29;20140;-63
2023/10/09 00:41:04;;;;;;;14.48;4.70;;;12.50;99.90;;;;;;4898583;29;20048;-63
2023/10/09 00:43:31;;;;;;;18.08;4.45;;;12.50;99.90;;;;;;4881767;29;20479;-63
2023/10/09 00:46:11;;;;;;;18.80;4.07;;;12.50;99.90;;;;;;4898207;29;20037;-63
2023/10/09 00:48:39;;;;;;;16.10;4.15;;;12.60;99.90;;;;;;4898971;29;20044;-62
2023/10/09 00:51:18;;;;;;;15.52;4.40;;;12.50;99.90;;;;;;4881452;29;20052;-62
2023/10/09 00:54:06;;;;;;;15.20;4.20;;;12.50;99.90;;;;;;4898843;29;20052;-63
2023/10/09 00:56:43;;;;;;;18.38;3.85;;;12.40;99.90;;;;;;4879953;29;20100;-63
2023/10/09 00:59:15;;;;;;;12.18;3.40;;;12.40;99.90;;;;;;4897630;29;20059;-63
2023/10/09 01:04:29;;;;;;;15.00;3.95;;;12.20;99.90;;;;;;4881959;29;20494;-63
2023/10/09 01:07:15;;;;;;;14.57;4.38;;;12.20;99.90;;;;;;4878807;29;20049;-63
2023/10/09 01:09:44;;;;;;;17.10;4.05;;;12.10;99.90;;;;;;4897962;29;20041;-63
2023/10/09 01:12:17;;;;;;;16.90;4.32;;;12.00;99.90;;;;;;4898361;29;20066;-63
2023/10/09 01:14:44;;;;;;;16.45;3.75;;;12.00;99.90;;;;;;4897658;29;20040;-63
2023/10/09 01:17:18;;;;;;;11.68;3.40;;;11.90;99.90;;;;;;4898543;29;20045;-63
2023/10/09 01:19:47;;;;;;;12.95;4.03;;;11.90;99.90;;;;;;4898053;29;20049;-63
2023/10/09 01:22:14;;;;;;;17.70;3.97;;;11.90;99.90;;;;;;4898070;29;20071;-63
2023/10/09 01:24:41;;;;;;;16.90;4.22;;;11.90;99.90;;;;;;4879136;29;20145;-62
2023/10/09 01:27:15;;;;;;;18.90;4.18;;;11.80;99.90;;;;;;4886423;29;20130;-63
2023/10/09 01:29:45;;;;;;;15.70;3.88;;;11.90;99.90;;;;;;4880268;29;20049;-62
2023/10/09 01:32:16;;;;;;;19.33;4.30;;;11.90;99.90;;;;;;4894253;29;20072;-63
2023/10/09 01:34:50;;;;;;;15.02;3.85;;;11.90;99.90;;;;;;4897788;29;20048;-63
2023/10/09 01:37:22;;;;;;;13.38;3.53;;;11.90;99.90;;;;;;4887810;29;20049;-62
2023/10/09 01:39:57;;;;;;;20.23;4.45;;;11.90;99.90;;;;;;4896475;29;20048;-62
2023/10/09 01:42:34;;;;;;;17.95;3.92;;;11.90;99.90;;;;;;4894389;29;20336;-61
2023/10/09 01:45:12;;;;;;;14.57;3.83;;;11.90;99.90;;;;;;4881014;29;20065;-63
2023/10/09 01:47:39;;;;;;;9.60;3.72;;;11.80;99.90;;;;;;4894634;29;20056;-59
2023/10/09 01:50:20;;;;;;;15.88;4.57;;;11.80;99.90;;;;;;4880847;29;20052;-60
2023/10/09 01:52:48;;;;;;;22.52;4.30;;;11.80;99.90;;;;;;4879576;29;20522;-57
2023/10/09 01:55:33;;;;;;;14.60;3.88;;;11.70;99.90;;;;;;4897869;29;20591;-58
2023/10/09 01:58:47;;;;;;;20.23;3.55;;;11.70;99.90;;;;;;4877757;29;20144;-59
2023/10/09 02:00:49;;;;;;;16.83;4.63;;;11.70;99.90;;;;;;4876294;29;20552;-57
2023/10/09 02:03:17;;;;;;;17.67;3.50;;;11.60;99.90;;;;;;4876870;29;20053;-59
2023/10/09 02:05:45;;;;;;;16.23;4.38;;;11.60;99.90;;;;;;4895607;29;20135;-57
2023/10/09 02:08:12;;;;;;;16.25;3.58;;;11.60;99.90;;;;;;4877386;29;20061;-59
2023/10/09 02:10:39;;;;;;;10.52;3.47;;;11.70;99.90;;;;;;4879066;29;20052;-60
2023/10/09 02:13:07;;;;;;;22.00;4.32;;;11.70;99.90;;;;;;4890698;29;20506;-61
2023/10/09 02:20:46;;;;;;;12.80;4.32;;;11.60;99.90;;;;;;4894823;29;20052;-63
2023/10/09 02:23:17;;;;;;;18.75;4.22;;;11.60;99.90;;;;;;4896527;29;20479;-63
2023/10/09 02:25:43;;;;;;;14.60;3.97;;;11.60;99.90;;;;;;4896011;29;20500;-62
2023/10/09 02:28:19;;;;;;;17.63;4.20;;;11.60;99.90;;;;;;4879859;29;20076;-63
2023/10/09 02:30:50;;;;;;;10.88;3.38;;;11.70;99.90;;;;;;4878629;29;20049;-63
2023/10/09 02:33:30;;;;;;;18.35;3.90;;;11.60;99.90;;;;;;4880531;29;20067;-62
2023/10/09 02:36:02;;;;;;;11.05;4.18;;;11.70;99.90;;;;;;4880149;29;20486;-63
2023/10/09 02:38:31;;;;;;;14.98;3.30;;;11.70;99.90;;;;;;4875434;29;20108;-62
2023/10/09 02:43:50;;;;;;;21.40;4.00;;;11.70;99.90;;;;;;4879043;29;20478;-63
2023/10/09 02:46:19;;;;;;;21.27;3.80;;;11.70;99.90;;;;;;4897110;29;20052;-61
2023/10/09 02:48:53;;;;;;;13.32;4.03;;;11.70;99.90;;;;;;4879941;29;20053;-63
2023/10/09 02:53:56;;;;;;;14.48;4.68;;;11.60;99.90;;;;;;4895996;29;20047;-62
2023/10/09 02:59:09;;;;;;;17.00;3.85;;;11.60;99.90;;;;;;4863124;29;20464;-62
2023/10/09 03:01:40;;;;;;;15.73;4.65;;;11.70;99.90;;;;;;4888746;29;20048;-63
2023/10/09 03:04:10;;;;;;;20.50;4.25;;;11.70;99.90;;;;;;4896079;29;20580;-63
2023/10/09 03:06:49;;;;;;;17.20;3.95;;;11.60;99.90;;;;;;4896769;29;20119;-63
2023/10/09 03:09:26;;;;;;;19.02;4.47;;;11.60;99.90;;;;;;4896381;29;20037;-62
2023/10/09 03:12:01;;;;;;;15.57;4.75;;;11.50;99.90;;;;;;4896552;29;20048;-62
2023/10/09 03:14:41;;;;;;;16.25;4.43;;;11.50;99.90;;;;;;4896907;29;20044;-63
2023/10/09 03:17:11;;;;;;;17.08;4.45;;;11.50;99.90;;;;;;4896606;29;20060;-62
2023/10/09 03:19:39;;;;;;;17.17;5.30;;;11.50;99.90;;;;;;4872098;29;20049;-62
2023/10/09 03:22:10;;;;;;;13.43;4.50;;;11.50;99.90;;;;;;4887915;29;20135;-62
2023/10/09 03:24:44;;;;;;;16.58;4.68;;;11.50;99.90;;;;;;4901521;29;20051;-62
2023/10/09 03:27:16;;;;;;;16.40;4.15;;;11.40;99.90;;;;;;4897363;29;20044;-63
2023/10/09 03:29:49;;;;;;;14.20;4.57;;;11.30;99.90;;;;;;4897812;29;20052;-63
2023/10/09 03:32:16;;;;;;;17.25;4.68;;;11.30;99.90;;;;;;4903588;29;20497;-63
2023/10/09 03:34:43;;;;;;;18.65;4.22;;;11.30;99.90;;;;;;4903864;29;20128;-62
2023/10/09 03:37:22;;;;;;;19.80;4.10;;;11.30;99.90;;;;;;4907138;29;20047;-62
2023/10/09 03:39:51;;;;;;;21.02;4.13;;;11.30;99.90;;;;;;4903066;29;20037;-62
2023/10/09 03:42:22;;;;;;;16.48;3.88;;;11.30;99.90;;;;;;4901529;29;20073;-62
2023/10/09 03:44:53;;;;;;;17.13;4.20;;;11.30;99.90;;;;;;4904027;29;20041;-63
2023/10/09 03:47:22;;;;;;;17.38;3.55;;;11.30;99.90;;;;;;4897503;29;20049;-63
2023/10/09 03:49:53;;;;;;;15.85;4.47;;;11.30;99.90;;;;;;4902938;29;20052;-63
2023/10/09 03:52:23;;;;;;;16.65;3.60;;;11.30;99.90;;;;;;4893666;29;20048;-62
2023/10/09 03:54:52;;;;;;;21.40;4.18;;;11.30;99.90;;;;;;4897722;29;20080;-63
2023/10/09 03:57:19;;;;;;;18.88;4.63;;;11.30;99.90;;;;;;4902217;29;20091;-62
2023/10/09 03:59:51;;;;;;;;;;;11.30;99.90;;;;;;4906857;29;20491;-63
2023/10/09 04:02:18;;;;;;;17.15;4.45;;;11.30;99.90;;;;;;4905816;29;20686;-63
2023/10/09 04:04:46;;;;;;;15.77;3.65;;;11.20;99.90;;;;;;4908251;29;20048;-63
2023/10/09 04:07:17;;;;;;;20.65;5.03;;;11.20;99.90;;;;;;4905686;29;20402;-63
2023/10/09 04:09:47;;;;;;;21.55;4.35;;;11.10;99.90;;;;;;4904796;29;20675;-63
2023/10/09 04:12:20;;;;;;;14.93;3.08;;;11.10;99.90;;;;;;4906002;29;20398;-62
2023/10/09 04:15:04;;;;;;;17.30;4.00;;;11.10;99.90;;;;;;4907188;29;20044;-63
2023/10/09 04:17:34;;;;;;;17.92;3.65;;;11.10;99.90;;;;;;4908822;29;20052;-62
2023/10/09 04:22:59;;;;;;;14.93;4.25;;;11.00;99.90;;;;;;4906029;29;20040;-62
2023/10/09 04:25:29;;;;;;;14.07;3.63;;;11.00;99.90;;;;;;4905019;29;20375;-61
2023/10/09 04:28:09;;;;;;;16.15;4.35;;;11.00;99.90;;;;;;4904526;29;20041;-61
2023/10/09 04:30:40;;;;;;;20.83;3.78;;;11.00;99.90;;;;;;4904587;29;20080;-62
2023/10/09 04:33:42;;;;;;;17.10;3.85;;;11.00;99.90;;;;;;4907040;29;20119;-62
2023/10/09 04:41:33;;;;;;;15.45;3.60;;;10.90;99.90;;;;;;4906521;29;20056;-63
2023/10/09 04:44:18;;;;;;;12.98;3.47;;;10.80;99.90;;;;;;4907175;29;21416;-62
2023/10/09 04:49:49;;;;;;;23.95;4.50;;;10.80;99.90;;;;;;4908996;29;20127;-62
2023/10/09 05:03:04;;;;;;;19.75;3.42;;;10.70;99.90;;;;;;4897833;29;20513;-61
2023/10/09 05:16:18;;;;;;;19.13;4.85;;;10.70;99.90;;;;;;4896681;29;20088;-61
2023/10/09 05:18:55;;;;;;;15.93;3.83;;;10.70;99.90;;;;;;4898055;29;20074;-61
2023/10/09 05:29:48;;;;;;;14.13;3.97;;;10.80;99.90;;;;;;4895880;29;20435;-61
2023/10/09 05:37:42;;;;;;;17.10;3.55;;;10.80;99.90;;;;;;4897544;29;20065;-61
2023/10/09 05:42:44;;;;;;;14.45;4.32;;;10.80;99.90;;;;;;4898269;29;20478;-62
2023/10/09 06:04:33;;;;;;;18.33;3.90;;;11.10;99.90;;;;;;4891423;29;20075;-63
2023/10/09 06:07:11;;;;;;;13.45;4.10;;;11.10;99.90;;;;;;4897275;29;20043;-62
2023/10/09 06:09:49;;;;;;;19.13;4.13;;;11.20;99.90;;;;;;4895369;29;20043;-63
2023/10/09 06:15:32;;;;;;;17.60;4.18;;;11.30;99.90;;;;;;4897247;29;20052;-62
2023/10/09 06:18:25;;;;;;;16.50;5.40;;;11.30;99.90;;;;;;4897474;29;20044;-62
2023/10/09 06:24:09;;;;;;;;;;;11.20;99.90;;;;;;4880684;29;20056;-62
2023/10/09 06:26:36;;;;;;;17.45;4.80;;;11.10;99.90;;;;;;4893128;29;20023;-62
2023/10/09 06:29:16;;;;;;;18.95;3.80;;;11.10;99.90;;;;;;4894594;29;20037;-61
2023/10/09 06:31:59;;;;;;;13.13;3.70;;;11.20;99.90;;;;;;4896297;29;20128;-62
2023/10/09 06:34:35;;;;;;;17.52;4.20;;;11.30;99.90;;;;;;4896706;29;20044;-61
2023/10/09 06:37:17;;;;;;;22.90;4.32;;;11.40;99.90;;;;;;4896733;29;20553;-62
2023/10/09 06:39:50;;;;;;;13.27;3.70;;;11.50;99.90;;;;;;4895444;29;20077;-62
2023/10/09 06:45:06;;;;;;;13.80;3.80;;;11.60;99.90;;;;;;4896536;29;20387;-62
2023/10/09 06:47:42;;;;;;;15.88;4.07;;;11.70;99.90;;;;;;4896624;29;20045;-61
2023/10/09 06:53:05;;;;;;;22.83;5.00;;;11.90;99.90;;;;;;4896522;29;20048;-62
2023/10/09 06:55:51;;;;;;;33.95;5.07;;;11.90;99.90;;;;;;4875559;29;20041;-61
2023/10/09 06:58:27;;;;;;;11.65;3.75;;;12.00;99.90;;;;;;4897805;29;20053;-61
2023/10/09 07:03:36;;;;;;;14.73;3.88;;;12.00;99.90;;;;;;4895325;29;20533;-62
2023/10/09 07:06:23;;;;;;;;;;;12.10;99.90;;;;;;4895294;29;20053;-62
2023/10/09 07:17:01;;;;;;;13.77;4.28;;;12.90;99.90;;;;;;4896180;29;20478;-62
2023/10/09 07:22:04;;;;;;;18.90;5.82;;;13.10;99.90;;;;;;4896169;29;20895;-61
2023/10/09 07:24:43;;;;;;;28.42;6.43;;;13.20;99.90;;;;;;4895889;29;20033;-62
2023/10/09 07:27:14;;;;;;;24.20;4.93;;;13.30;99.90;;;;;;4895681;29;20044;-62
2023/10/09 07:29:50;;;;;;;17.00;5.82;;;13.40;99.90;;;;;;4895795;29;20040;-62
2023/10/09 07:32:21;;;;;;;19.35;5.55;;;13.50;99.90;;;;;;4893669;29;20060;-62
2023/10/09 07:34:58;;;;;;;22.45;5.43;;;13.50;99.90;;;;;;4895898;29;20495;-62
2023/10/09 07:37:35;;;;;;;20.55;6.05;;;13.70;99.90;;;;;;4890762;29;20087;-62
2023/10/09 07:40:07;;;;;;;19.83;5.40;;;13.90;99.90;;;;;;4895215;29;20040;-62
2023/10/09 07:50:38;;;;;;;30.15;6.63;;;14.40;99.90;;;;;;4895336;29;20399;-62
2023/10/09 07:53:14;;;;;;;21.30;5.53;;;14.60;99.90;;;;;;4895070;29;20521;-62
2023/10/09 07:55:49;;;;;;;21.02;6.15;;;14.60;99.90;;;;;;4895832;29;20080;-62
2023/10/09 07:58:16;;;;;;;21.00;6.30;;;14.70;99.90;;;;;;4895787;29;20139;-62
2023/10/09 08:03:32;;;;;;;20.50;6.03;;;14.90;99.90;;;;;;4895521;29;20475;-62
2023/10/09 08:06:37;;;;;;;19.35;5.70;;;15.00;99.90;;;;;;4894684;29;20052;-62
2023/10/09 08:11:59;;;;;;;20.52;5.43;;;15.20;99.90;;;;;;4888328;29;20281;-62
2023/10/09 08:17:20;;;;;;;19.10;4.50;;;15.50;99.90;;;;;;4895548;29;20043;-62
2023/10/09 08:19:56;;;;;;;22.10;4.70;;;15.50;99.90;;;;;;4895275;29;20041;-62
2023/10/09 08:24:56;;;;;;;15.77;4.15;;;15.90;99.90;;;;;;4895904;29;20498;-62
2023/10/09 08:35:47;;;;;;;16.30;4.60;;;16.80;99.90;;;;;;4879245;29;20490;-63
2023/10/09 08:38:23;;;;;;;26.10;5.82;;;16.80;99.90;;;;;;4898336;29;20052;-62
2023/10/09 08:40:58;;;;;;;20.38;5.10;;;16.80;99.90;;;;;;4897553;29;20569;-62
2023/10/09 08:43:30;;;;;;;16.13;4.68;;;16.80;99.90;;;;;;4898662;29;20083;-62
2023/10/09 08:46:03;;;;;;;16.40;4.75;;;17.00;99.90;;;;;;4895466;29;20067;-62
2023/10/09 08:48:30;;;;;;;18.40;5.03;;;17.20;99.90;;;;;;4890927;29;20048;-62
2023/10/09 08:50:57;;;;;;;;;;;17.20;99.90;;;;;;4897900;29;20041;-62
2023/10/09 08:53:27;;;;;;;12.95;4.32;;;17.30;99.90;;;;;;4899142;29;19924;-61
2023/10/09 08:55:55;;;;;;;18.88;4.80;;;17.30;99.90;;;;;;4898087;29;20502;-61
2023/10/09 08:58:37;;;;;;;17.05;4.25;;;17.20;99.90;;;;;;4894155;29;20056;-62
2023/10/09 09:01:04;;;;;;;18.55;4.90;;;17.10;99.90;;;;;;4898283;29;20048;-62
2023/10/09 09:03:43;;;;;;;16.70;4.55;;;16.90;99.90;;;;;;4890429;29;20123;-62
2023/10/09 09:06:11;;;;;;;21.98;5.03;;;16.70;99.90;;;;;;4897890;29;20366;-62
2023/10/09 09:08:44;;;;;;;14.10;4.55;;;16.60;99.90;;;;;;4891691;29;20037;-62
2023/10/09 09:11:22;;;;;;;17.42;5.32;;;16.70;99.90;;;;;;4898107;29;20045;-62
2023/10/09 09:14:02;;;;;;;21.67;4.25;;;16.80;99.90;;;;;;4898239;29;20521;-62
2023/10/09 09:16:30;;;;;;;22.08;5.32;;;17.00;99.90;;;;;;4897420;29;20040;-61
2023/10/09 09:19:04;;;;;;;15.70;4.22;;;17.10;99.90;;;;;;4898392;29;20061;-62
2023/10/09 09:21:45;;;;;;;17.70;4.43;;;17.20;99.90;;;;;;4897850;29;20132;-62
2023/10/09 09:27:00;;;;;;;14.75;4.47;;;17.30;99.90;;;;;;4892506;29;20041;-62
2023/10/09 09:29:37;;;;;;;16.67;4.50;;;17.60;99.90;;;;;;4897980;29;20036;-62
2023/10/09 09:32:20;;;;;;;21.15;5.07;;;17.90;99.90;;;;;;4897353;29;20132;-61
2023/10/09 09:34:49;;;;;;;17.55;4.43;;;18.00;99.90;;;;;;4896763;29;20450;-61
2023/10/09 09:37:21;;;;;;;17.17;4.55;;;18.20;99.90;;;;;;4897451;29;20049;-60
2023/10/09 09:39:51;;;;;;;23.25;4.72;;;18.40;99.90;;;;;;4897114;29;20438;-63
2023/10/09 09:42:26;;;;;;;18.25;5.05;;;18.70;99.90;;;;;;4895311;29;20051;-62
2023/10/09 09:44:55;;;;;;;12.75;3.83;;;19.00;99.90;;;;;;4896777;29;20033;-62
2023/10/09 09:47:29;;;;;;;18.08;4.28;;;19.30;99.90;;;;;;4896403;29;20327;-62
2023/10/09 09:49:59;;;;;;;21.90;4.35;;;19.40;99.90;;;;;;4896330;29;20526;-62
2023/10/09 09:52:37;;;;;;;13.20;4.43;;;19.50;99.90;;;;;;4897668;29;20127;-62
2023/10/09 09:55:18;;;;;;;16.67;4.13;;;19.40;99.90;;;;;;4897036;29;20521;-61
2023/10/09 09:57:51;;;;;;;22.42;5.32;;;19.40;99.90;;;;;;4897582;29;20051;-62
2023/10/09 10:00:30;;;;;;;17.35;4.53;;;19.40;99.90;;;;;;4897134;29;20977;-63
2023/10/09 10:03:05;;;;;;;13.57;4.70;;;19.40;99.90;;;;;;4896089;29;20051;-62
2023/10/09 10:05:34;;;;;;;12.43;4.03;;;19.50;99.90;;;;;;4896849;29;20049;-61
2023/10/09 10:08:04;;;;;;;19.02;4.38;;;19.60;99.90;;;;;;4896990;29;20073;-62
2023/10/09 10:10:47;;;;;;;17.77;4.32;;;19.60;99.90;;;;;;4893713;29;20037;-62
2023/10/09 10:13:15;;;;;;;16.27;4.75;;;19.50;99.90;;;;;;4897151;29;20057;-62
2023/10/09 10:15:57;;;;;;;20.10;4.00;;;19.50;99.90;;;;;;4897351;29;20040;-63
2023/10/09 10:18:24;;;;;;;13.90;3.97;;;19.60;99.90;;;;;;4891495;29;20048;-63
2023/10/09 10:21:17;;;;;;;24.17;5.10;;;19.60;99.90;;;;;;4901205;29;20044;-62
2023/10/09 10:23:47;;;;;;;18.92;4.55;;;19.80;99.90;;;;;;4888860;29;20138;-62
2023/10/09 10:26:27;;;;;;;15.63;4.60;;;19.90;99.90;;;;;;4895678;29;20431;-63
2023/10/09 10:29:22;;;;;;;18.30;3.78;;;19.90;99.90;;;;;;4896941;29;20068;-63
2023/10/09 10:32:04;;;;;;;13.75;3.83;;;20.00;99.90;;;;;;4889618;29;20044;-62
2023/10/09 10:34:56;;;;;;;20.88;4.85;;;20.10;99.90;;;;;;4896496;29;20063;-61
2023/10/09 10:38:00;;;;;;;12.23;3.72;;;20.20;99.90;;;;;;4896729;29;20040;-63
2023/10/09 10:49:00;;;;;;;15.55;3.88;;;21.10;99.90;;;;;;4889674;29;20064;-63
2023/10/09 10:51:40;;;;;;;21.98;4.60;;;21.30;99.90;;;;;;4895651;29;20123;-63
2023/10/09 10:54:45;;;;;;;16.95;4.30;;;21.40;99.90;;;;;;4896724;29;20469;-63
2023/10/09 10:57:28;;;;;;;23.77;4.75;;;21.20;99.90;;;;;;4892708;29;20119;-63
2023/10/09 11:02:47;;;;;;;20.17;4.20;;;21.10;99.90;;;;;;4895236;29;20127;-63
2023/10/09 11:05:23;;;;;;;21.02;4.25;;;21.10;99.90;;;;;;4896372;29;20120;-63
2023/10/09 11:07:52;;;;;;;14.77;3.90;;;21.30;99.90;;;;;;4896210;29;20052;-63
2023/10/09 11:10:28;;;;;;;20.48;4.10;;;21.40;99.90;;;;;;4895674;29;20056;-63
2023/10/09 11:13:30;;;;;;;17.45;4.10;;;21.50;99.90;;;;;;4896135;29;20525;-63
2023/10/09 11:15:45;;;;;;;13.65;4.50;;;21.60;99.90;;;;;;4895818;29;20127;-63
2023/10/09 11:18:20;;;;;;;21.92;4.75;;;21.70;99.90;;;;;;4890819;29;20048;-63
2023/10/09 11:29:52;;;;;;;19.15;4.47;;;21.50;99.90;;;;;;4879757;29;20048;-62
2023/10/09 11:32:22;;;;;;;12.45;4.53;;;21.40;99.90;;;;;;4895691;29;20132;-62
2023/10/09 11:34:53;;;;;;;15.27;3.97;;;21.50;99.90;;;;;;4891409;29;20080;-63
2023/10/09 11:39:58;;;;;;;22.33;5.07;;;21.80;99.90;;;;;;4894570;29;20049;-63
2023/10/09 11:42:38;;;;;;;21.40;5.65;;;21.90;99.90;;;;;;4895747;29;20045;-62
2023/10/09 11:45:19;;;;;;;18.88;4.18;;;22.00;99.90;;;;;;4894576;29;20048;-63
2023/10/09 11:48:00;;;;;;;17.13;4.50;;;21.90;99.90;;;;;;4895750;29;20040;-63
2023/10/09 11:53:48;;;;;;;15.35;4.32;;;21.50;99.90;;;;;;4865776;29;20462;-62
2023/10/09 11:56:19;;;;;;;18.17;4.80;;;21.30;99.90;;;;;;4856111;29;20556;-63
2023/10/09 11:58:50;;;;;;;17.10;4.90;;;21.30;99.90;;;;;;4876781;29;20056;-62
2023/10/09 12:01:20;;;;;;;14.25;4.45;;;21.30;99.90;;;;;;4895504;29;20502;-63
2023/10/09 12:03:49;;;;;;;19.67;4.45;;;21.30;99.90;;;;;;4895104;29;20036;-62
2023/10/09 12:06:22;;;;;;;21.58;4.38;;;21.30;99.90;;;;;;4895376;29;20502;-62
2023/10/09 12:08:50;;;;;;;20.77;4.07;;;21.50;99.90;;;;;;4896177;29;20051;-62
2023/10/09 12:11:22;;;;;;;22.42;4.10;;;21.50;99.90;;;;;;4899282;29;20052;-62
2023/10/09 12:13:56;;;;;;;20.67;4.60;;;21.40;99.90;;;;;;4890174;29;20041;-62
2023/10/09 12:16:27;;;;;;;21.52;4.70;;;21.60;99.90;;;;;;4899366;29;20104;-63
2023/10/09 12:18:55;;;;;;;20.95;4.90;;;21.90;99.90;;;;;;4879671;29;20506;-63
2023/10/09 12:21:23;;;;;;;22.30;5.80;;;22.00;99.90;;;;;;4895683;29;20048;-62
2023/10/09 12:23:50;;;;;;;24.50;4.88;;;22.00;99.90;;;;;;4897953;29;20041;-63
2023/10/09 12:26:16;;;;;;;18.02;4.30;;;22.30;99.90;;;;;;4898967;29;20053;-63
2023/10/09 12:28:45;;;;;;;17.02;3.88;;;22.40;99.90;;;;;;4898711;29;20566;-62
2023/10/09 12:31:19;;;;;;;15.52;4.10;;;22.40;99.90;;;;;;4898460;29;20045;-63
2023/10/09 12:33:47;;;;;;;20.45;4.30;;;22.50;99.90;;;;;;4898492;29;20055;-61
2023/10/09 12:36:20;;;;;;;22.17;4.25;;;22.70;99.90;;;;;;4899171;29;20045;-63
2023/10/09 12:38:54;;;;;;;19.02;4.20;;;22.90;99.90;;;;;;4898810;29;20050;-62
2023/10/09 12:41:27;;;;;;;22.40;4.70;;;23.10;99.90;;;;;;4897380;29;20047;-62
2023/10/09 12:43:57;;;;;;;16.77;4.03;;;23.10;99.90;;;;;;4898867;29;20041;-62
2023/10/09 12:46:32;;;;;;;20.15;4.05;;;23.20;99.90;;;;;;4898557;29;20041;-62
2023/10/09 12:49:01;;;;;;;17.88;4.38;;;23.10;99.90;;;;;;4895216;29;20127;-63
2023/10/09 12:51:30;;;;;;;18.02;3.40;;;23.20;99.90;;;;;;4895695;29;20040;-62
2023/10/09 12:53:57;;;;;;;17.90;3.35;;;23.20;99.90;;;;;;4880957;29;20045;-63
2023/10/09 12:56:32;;;;;;;;;;;23.20;99.90;;;;;;4899132;29;20590;-62
2023/10/09 12:59:01;;;;;;;17.77;3.63;;;23.20;99.90;;;;;;4896911;29;20014;-63
2023/10/09 13:01:42;;;;;;;18.95;4.13;;;23.10;99.90;;;;;;4898326;29;20498;-63
2023/10/09 13:04:17;;;;;;;17.13;3.65;;;23.00;99.90;;;;;;4879329;29;20045;-63
2023/10/09 13:06:45;;;;;;;24.00;3.92;;;22.80;99.90;;;;;;4896222;29;20048;-63
2023/10/09 13:09:34;;;;;;;14.65;3.70;;;22.60;99.90;;;;;;4898304;29;20044;-62
2023/10/09 13:12:01;;;;;;;20.48;4.53;;;22.50;99.90;;;;;;4890891;29;20072;-62
2023/10/09 13:14:28;;;;;;;;;;;22.40;99.90;;;;;;4898755;29;20068;-63
2023/10/09 13:16:56;;;;;;;20.58;3.97;;;22.40;99.90;;;;;;4897732;29;19924;-61
2023/10/09 13:19:24;;;;;;;17.85;3.90;;;22.30;99.90;;;;;;4896706;29;20052;-62
2023/10/09 13:21:51;;;;;;;17.48;3.72;;;22.30;99.90;;;;;;4897838;29;20040;-63
2023/10/09 13:24:29;;;;;;;15.68;3.17;;;22.30;99.90;;;;;;4897649;29;20048;-61
2023/10/09 13:26:58;;;;;;;20.17;3.28;;;22.30;99.90;;;;;;4888784;29;20042;-62
2023/10/09 13:29:25;;;;;;;17.42;3.00;;;22.40;99.90;;;;;;4886039;29;20109;-62
2023/10/09 13:32:02;;;;;;;;;;;22.40;99.90;;;;;;4898094;29;20052;-63
2023/10/09 13:34:29;;;;;;;14.20;3.45;;;22.40;99.90;;;;;;4897932;29;19927;-62
2023/10/09 13:36:59;;;;;;;15.65;3.63;;;22.40;99.90;;;;;;4897887;29;20072;-63
2023/10/09 13:39:26;;;;;;;18.05;3.70;;;22.30;99.90;;;;;;4896713;29;20092;-62
2023/10/09 13:41:58;;;;;;;18.52;4.03;;;22.20;99.90;;;;;;4897765;29;20043;-63
2023/10/09 13:44:33;;;;;;;19.23;3.75;;;21.90;99.90;;;;;;4897745;29;20475;-63
2023/10/09 13:47:04;;;;;;;15.63;3.72;;;21.70;99.90;;;;;;4886467;29;20052;-62
2023/10/09 13:49:32;;;;;;;17.77;2.83;;;21.60;99.90;;;;;;4894178;29;20037;-62
2023/10/09 13:52:06;;;;;;;15.38;3.08;;;21.50;99.90;;;;;;4896799;29;20541;-62
2023/10/09 13:57:03;;;;;;;17.23;3.70;;;21.50;99.90;;;;;;4888120;29;20048;-62
2023/10/09 13:59:31;;;;;;;17.98;3.08;;;21.40;99.90;;;;;;4897500;29;20049;-60
2023/10/09 14:01:59;;;;;;;17.52;3.58;;;21.40;99.90;;;;;;4895538;29;20409;-63
2023/10/09 14:04:26;;;;;;;19.40;3.60;;;21.30;99.90;;;;;;4897254;29;20059;-62
2023/10/09 14:07:00;;;;;;;21.90;3.75;;;21.30;99.90;;;;;;4896150;29;20414;-63
2023/10/09 14:09:30;;;;;;;14.35;3.17;;;21.30;99.90;;;;;;4897049;29;20036;-62
2023/10/09 14:12:11;;;;;;;23.55;3.28;;;21.20;99.90;;;;;;4896981;29;20044;-62
2023/10/09 14:14:47;;;;;;;25.25;3.92;;;21.10;99.90;;;;;;4895845;29;20100;-62
2023/10/09 14:17:19;;;;;;;16.00;3.38;;;21.00;99.90;;;;;;4896688;29;20108;-62
2023/10/09 14:19:51;;;;;;;16.38;2.70;;;20.90;99.90;;;;;;4895735;29;20048;-62
2023/10/09 14:22:25;;;;;;;12.75;3.47;;;20.90;99.90;;;;;;4896641;29;20498;-63
2023/10/09 14:24:55;;;;;;;16.88;3.22;;;21.00;99.90;;;;;;4896489;29;20490;-63
2023/10/09 14:27:29;;;;;;;15.98;3.45;;;21.10;99.90;;;;;;4895752;29;20059;-63
2023/10/09 14:29:59;;;;;;;22.73;3.50;;;21.30;99.90;;;;;;4895894;29;20044;-63
2023/10/09 14:32:33;;;;;;;19.75;3.42;;;21.40;99.90;;;;;;4896615;29;20069;-61
2023/10/09 14:35:01;;;;;;;17.33;3.53;;;21.50;99.90;;;;;;4896877;29;20354;-62
2023/10/09 14:37:28;;;;;;;17.83;3.95;;;21.40;99.90;;;;;;4895567;29;20048;-62
2023/10/09 14:39:56;;;;;;;;;;;21.30;99.90;;;;;;4896812;29;20048;-62
2023/10/09 14:42:27;;;;;;;15.63;3.58;;;21.20;99.90;;;;;;4891021;29;20361;-62
2023/10/09 14:44:55;;;;;;;17.52;3.80;;;21.10;99.90;;;;;;4895504;29;20044;-63
2023/10/09 14:47:22;;;;;;;18.67;3.47;;;20.90;99.90;;;;;;4895856;29;20063;-62
2023/10/09 14:49:50;;;;;;;15.95;4.10;;;20.80;99.90;;;;;;4887109;29;20107;-63
2023/10/09 14:52:17;;;;;;;27.77;3.63;;;20.70;99.90;;;;;;4896398;29;20116;-62
2023/10/09 14:54:44;;;;;;;19.45;3.22;;;20.60;99.90;;;;;;4895325;29;20044;-63
2023/10/09 14:57:12;;;;;;;21.73;3.35;;;20.50;99.90;;;;;;4896569;29;20059;-62
2023/10/09 14:59:39;;;;;;;15.68;4.32;;;20.50;99.90;;;;;;4889420;29;20131;-63
2023/10/09 15:02:07;;;;;;;15.88;3.63;;;20.50;99.90;;;;;;4888443;29;20044;-63
2023/10/09 15:04:36;;;;;;;11.07;3.33;;;20.60;99.90;;;;;;4895879;29;20053;-63
2023/10/09 15:07:06;;;;;;;16.58;3.20;;;20.60;95.90;;;;;;4895088;29;20153;-63
2023/10/09 15:09:36;;;;;;;20.05;4.00;;;20.70;98.60;;;;;;4900953;29;20510;-62
2023/10/09 15:12:06;;;;;;;21.20;3.92;;;20.50;98.00;;;;;;4903079;29;20573;-62
2023/10/09 15:14:33;;;;;;;17.10;3.13;;;21.00;96.30;;;;;;4903556;29;20513;-63
2023/10/09 15:17:02;;;;;;;22.42;3.67;;;21.10;93.20;;;;;;4902220;29;20137;-63
2023/10/09 15:19:29;;;;;;;18.00;3.13;;;21.30;95.30;;;;;;4903559;29;20119;-63
2023/10/09 15:21:59;;;;;;;12.55;3.10;;;21.30;94.20;;;;;;4902633;29;20075;-62
2023/10/09 15:24:29;;;;;;;11.10;2.90;;;21.30;91.80;;;;;;4903636;29;20045;-63
2023/10/09 15:26:57;;;;;;;10.52;2.60;;;21.30;92.10;;;;;;4944216;23;20054;-56
2023/10/09 15:29:32;;;;;;;;;;;21.40;90.20;;;;;;5009850;28;20042;-54
2023/10/09 15:32:04;;;;;;;10.40;2.97;;;21.30;90.00;;;;;;5008719;28;19931;-58
2023/10/09 15:34:34;;;;;;;9.52;2.50;;;21.20;90.10;;;;;;5009903;28;20077;-54
2023/10/09 15:37:07;;;;;;;9.38;3.10;;;21.20;90.00;;;;;;5003035;28;20046;-54
2023/10/09 15:39:36;;;;;;;11.15;3.25;;;21.20;88.40;;;;;;5009960;28;20033;-55
2023/10/09 15:42:06;;;;;;;10.85;2.63;;;21.30;86.40;;;;;;5013020;28;20133;-55
2023/10/09 15:44:36;;;;;;;14.25;3.42;;;21.30;86.90;;;;;;5011892;28;20038;-54
2023/10/09 15:47:08;;;;;;;18.67;3.33;;;21.30;86.00;;;;;;5014538;28;20041;-54
2023/10/09 15:49:41;;;;;;;11.68;3.00;;;21.40;84.20;;;;;;5010318;28;20097;-54
2023/10/09 15:52:08;;;;;;;12.32;3.65;;;21.40;85.30;;;;;;5014679;28;20552;-54
2023/10/09 15:54:36;;;;;;;11.85;2.90;;;21.40;85.60;;;;;;5013787;28;20586;-54
2023/10/09 15:57:03;;;;;;;11.48;2.50;;;21.40;84.50;;;;;;5014818;28;20125;-54
2023/10/09 15:59:39;;;;;;;18.10;3.63;;;21.60;83.90;;;;;;5008901;28;20136;-56
2023/10/09 16:02:06;;;;;;;;;;;21.50;86.50;;;;;;5014940;28;20521;-55
2023/10/09 16:04:33;;;;;;;12.82;2.95;;;21.50;85.30;;;;;;5014357;28;20401;-54